createdAt,value
2023-03-25T00:00:17.568Z,96957.75
2023-03-25T00:02:46.274Z,96945.66
2023-03-25T00:05:17.602Z,96948.28
2023-03-25T00:07:45.455Z,96945.88
2023-03-25T00:10:13.651Z,96949.22
2023-03-25T00:12:42.800Z,96952.28
2023-03-25T00:15:11.401Z,96951.09
2023-03-25T00:17:39.409Z,96949.59
2023-03-25T00:20:11.410Z,96942.16
2023-03-25T00:22:41.744Z,96939.25
2023-03-25T00:25:17.995Z,96932.16
2023-03-25T00:27:46.882Z,96926.13
2023-03-25T00:30:15.703Z,96917.13
2023-03-25T00:32:45.994Z,96921.19
2023-03-25T00:35:17.715Z,96920.72
2023-03-25T00:37:47.889Z,96920.25
2023-03-25T00:40:15.606Z,96921.56
2023-03-25T00:42:45.030Z,96916.63
2023-03-25T00:45:12.767Z,96926.66
2023-03-25T00:47:41.606Z,96914.63
2023-03-25T00:50:10.031Z,96914.31
2023-03-25T00:52:37.727Z,96905.34
2023-03-25T00:55:05.902Z,96911.22
2023-03-25T00:57:33.791Z,96899.03
2023-03-25T01:00:01.549Z,96910.47
2023-03-25T01:02:29.345Z,96911.81
2023-03-25T01:04:57.691Z,96908.03
2023-03-25T01:07:25.544Z,96894.50
2023-03-25T01:09:53.290Z,96903.03
2023-03-25T01:12:20.995Z,96895.53
2023-03-25T01:14:48.817Z,96891.28
2023-03-25T01:17:16.533Z,96885.78
2023-03-25T01:19:44.336Z,96887.66
2023-03-25T01:22:12.004Z,96892.34
2023-03-25T01:24:39.805Z,96872.31
2023-03-25T01:27:08.443Z,96877.81
2023-03-25T01:29:36.297Z,96887.59
2023-03-25T01:32:04.562Z,96862.47
2023-03-25T01:34:33.426Z,96866.25
2023-03-25T01:37:01.535Z,96866.28
2023-03-25T01:39:29.398Z,96859.84
2023-03-25T01:41:57.212Z,96865.81
2023-03-25T01:44:24.889Z,96850.88
2023-03-25T01:46:56.322Z,96848.19
2023-03-25T01:49:27.007Z,96849.81
2023-03-25T01:52:05.824Z,96840.72
2023-03-25T01:54:33.865Z,96845.31
2023-03-25T01:57:01.707Z,96842.53
2023-03-25T01:59:29.492Z,96849.75
2023-03-25T02:01:58.411Z,96842.13
2023-03-25T02:04:44.239Z,96847.75
2023-03-25T02:07:11.998Z,96838.03
2023-03-25T02:09:39.710Z,96839.47
2023-03-25T02:12:08.270Z,96834.97
2023-03-25T02:14:36.365Z,96836.75
2023-03-25T02:17:16.297Z,96826.56
2023-03-25T02:19:53.040Z,96832.41
2023-03-25T02:22:39.127Z,96830.88
2023-03-25T02:25:22.015Z,96832.03
2023-03-25T02:28:25.745Z,96837.03
2023-03-25T02:31:11.695Z,96834.09
2023-03-25T02:34:11.190Z,96821.03
2023-03-25T02:37:01.494Z,96830.50
2023-03-25T02:39:42.629Z,96831.63
2023-03-25T02:42:40.261Z,96824.81
2023-03-25T02:45:21.051Z,96832.50
2023-03-25T02:47:52.174Z,96819.06
2023-03-25T02:50:26.024Z,96822.75
2023-03-25T02:52:59.244Z,96823.09
2023-03-25T02:55:30.507Z,96808.66
2023-03-25T02:57:59.264Z,96816.81
2023-03-25T03:00:28.589Z,96797.41
2023-03-25T03:03:03.698Z,96808.69
2023-03-25T03:05:34.855Z,96809.28
2023-03-25T03:08:27.225Z,96810.41
2023-03-25T03:11:15.781Z,96801.13
2023-03-25T03:13:55.476Z,96803.44
2023-03-25T03:16:50.178Z,96805.97
2023-03-25T03:19:28.462Z,96812.38
2023-03-25T03:22:01.405Z,96808.00
2023-03-25T03:24:37.353Z,96805.41
2023-03-25T03:27:15.181Z,96813.94
2023-03-25T03:29:46.649Z,96811.41
2023-03-25T03:32:23.031Z,96811.78
2023-03-25T03:34:56.666Z,96814.81
2023-03-25T03:37:46.049Z,96822.16
2023-03-25T03:40:16.496Z,96827.88
2023-03-25T03:43:17.094Z,96821.28
2023-03-25T03:45:48.321Z,96824.13
2023-03-25T03:48:22.199Z,96822.47
2023-03-25T03:50:56.842Z,96836.19
2023-03-25T03:53:29.635Z,96833.53
2023-03-25T03:56:01.753Z,96826.66
2023-03-25T03:58:31.761Z,96830.09
2023-03-25T04:01:04.900Z,96838.94
2023-03-25T04:03:39.061Z,96822.03
2023-03-25T04:06:21.113Z,96829.59
2023-03-25T04:09:00.444Z,96840.81
2023-03-25T04:11:32.855Z,96839.59
2023-03-25T04:14:00.989Z,96842.41
2023-03-25T04:16:28.720Z,96839.69
2023-03-25T04:18:58.363Z,96849.03
2023-03-25T04:21:26.244Z,96846.41
2023-03-25T04:23:54.067Z,96844.81
2023-03-25T04:26:21.745Z,96848.94
2023-03-25T04:28:49.435Z,96848.31
2023-03-25T04:31:17.691Z,96844.97
2023-03-25T04:33:50.697Z,96854.50
2023-03-25T04:36:18.538Z,96853.84
2023-03-25T04:38:46.308Z,96860.97
2023-03-25T04:41:15.060Z,96853.28
2023-03-25T04:43:45.194Z,96855.78
2023-03-25T04:46:13.807Z,96858.38
2023-03-25T04:48:41.672Z,96857.09
2023-03-25T04:51:10.310Z,96858.69
2023-03-25T04:53:38.931Z,96863.56
2023-03-25T04:56:07.644Z,96864.97
2023-03-25T04:58:36.887Z,96862.44
2023-03-25T05:01:06.161Z,96864.53
2023-03-25T05:03:34.067Z,96861.91
2023-03-25T05:06:01.726Z,96870.75
2023-03-25T05:08:31.187Z,96866.00
2023-03-25T05:10:58.891Z,96863.28
2023-03-25T05:13:26.579Z,96863.59
2023-03-25T05:15:54.420Z,96869.34
2023-03-25T05:18:22.280Z,96869.75
2023-03-25T05:20:51.087Z,96858.88
2023-03-25T05:23:19.157Z,96865.19
2023-03-25T05:25:48.112Z,96863.13
2023-03-25T05:28:16.063Z,96861.00
2023-03-25T05:30:46.145Z,96869.31
2023-03-25T05:33:15.756Z,96861.88
2023-03-25T05:35:43.768Z,96868.84
2023-03-25T05:38:18.409Z,96857.88
2023-03-25T05:40:47.729Z,96855.59
2023-03-25T05:43:15.795Z,96853.63
2023-03-25T05:45:45.083Z,96861.34
2023-03-25T05:48:12.934Z,96867.78
2023-03-25T05:50:42.948Z,96860.97
2023-03-25T05:53:12.418Z,96861.63
2023-03-25T05:55:40.315Z,96854.56
2023-03-25T05:58:08.080Z,96859.50
2023-03-25T06:00:37.278Z,96849.75
2023-03-25T06:03:07.283Z,96860.69
2023-03-25T06:05:35.102Z,96855.59
2023-03-25T06:08:03.942Z,96852.41
2023-03-25T06:10:33.399Z,96848.16
2023-03-25T06:13:01.062Z,96844.63
2023-03-25T06:15:29.206Z,96843.47
2023-03-25T06:17:57.481Z,96851.94
2023-03-25T06:20:25.495Z,96857.03
2023-03-25T06:22:53.145Z,96847.44
2023-03-25T06:25:21.042Z,96858.78
2023-03-25T06:27:49.339Z,96860.72
2023-03-25T06:30:19.306Z,96855.44
2023-03-25T06:32:50.630Z,96852.72
2023-03-25T06:35:20.123Z,96857.59
2023-03-25T06:37:48.873Z,96856.97
2023-03-25T06:40:25.925Z,96862.22
2023-03-25T06:42:54.138Z,96874.16
2023-03-25T06:45:40.404Z,96863.75
2023-03-25T06:48:22.158Z,96867.34
2023-03-25T06:50:49.918Z,96875.06
2023-03-25T06:53:17.658Z,96867.44
2023-03-25T06:55:45.451Z,96870.84
2023-03-25T06:58:13.231Z,96869.22
2023-03-25T07:00:41.087Z,96876.97
2023-03-25T07:03:09.382Z,96878.13
2023-03-25T07:05:37.148Z,96883.97
2023-03-25T07:08:05.230Z,96879.56
2023-03-25T07:10:33.041Z,96877.16
2023-03-25T07:13:00.955Z,96870.66
2023-03-25T07:15:28.691Z,96870.09
2023-03-25T07:17:56.410Z,96865.91
2023-03-25T07:20:24.199Z,96867.53
2023-03-25T07:22:53.866Z,96870.25
2023-03-25T07:25:22.174Z,96861.56
2023-03-25T07:27:49.878Z,96867.63
2023-03-25T07:30:19.561Z,96857.44
2023-03-25T07:32:47.326Z,96862.97
2023-03-25T07:35:15.479Z,96871.41
2023-03-25T07:37:43.194Z,96864.09
2023-03-25T07:40:11.383Z,96867.97
2023-03-25T07:42:39.102Z,96859.75
2023-03-25T07:45:24.067Z,96858.81
2023-03-25T07:47:53.822Z,96850.19
2023-03-25T07:50:24.924Z,96852.31
2023-03-25T07:52:54.269Z,96855.03
2023-03-25T07:55:22.022Z,96848.09
2023-03-25T07:57:49.786Z,96845.06
2023-03-25T08:00:17.609Z,96845.28
2023-03-25T08:02:45.472Z,96849.59
2023-03-25T08:05:21.387Z,96837.63
2023-03-25T08:07:49.701Z,96841.00
2023-03-25T08:10:17.845Z,96838.03
2023-03-25T08:12:45.732Z,96836.78
2023-03-25T08:15:13.727Z,96832.06
2023-03-25T08:17:41.590Z,96835.50
2023-03-25T08:20:09.885Z,96832.00
2023-03-25T08:22:37.715Z,96828.34
2023-03-25T08:25:05.977Z,96822.03
2023-03-25T08:27:33.679Z,96819.16
2023-03-25T08:30:01.628Z,96820.34
2023-03-25T08:32:29.984Z,96808.66
2023-03-25T08:34:57.836Z,96807.25
2023-03-25T08:37:26.005Z,96819.19
2023-03-25T08:39:55.984Z,96814.09
2023-03-25T08:42:23.744Z,96822.38
2023-03-25T08:44:51.460Z,96818.09
2023-03-25T08:47:19.193Z,96824.78
2023-03-25T08:49:46.977Z,96819.66
2023-03-25T08:52:14.815Z,96821.25
2023-03-25T08:54:42.570Z,96818.00
2023-03-25T08:57:10.407Z,96810.47
2023-03-25T08:59:38.259Z,96801.97
2023-03-25T09:02:06.197Z,96798.19
2023-03-25T09:04:33.963Z,96804.97
2023-03-25T09:07:11.703Z,96800.38
2023-03-25T09:09:42.859Z,96799.34
2023-03-25T09:12:10.789Z,96798.50
2023-03-25T09:14:38.547Z,96801.88
2023-03-25T09:17:06.434Z,96799.03
2023-03-25T09:19:35.260Z,96794.03
2023-03-25T09:22:03.152Z,96805.34
2023-03-25T09:24:34.061Z,96803.28
2023-03-25T09:27:02.442Z,96792.31
2023-03-25T09:29:30.421Z,96786.19
2023-03-25T09:31:59.587Z,96801.41
2023-03-25T09:34:27.978Z,96793.09
2023-03-25T09:36:55.942Z,96794.81
2023-03-25T09:39:23.698Z,96789.00
2023-03-25T09:42:00.438Z,96787.75
2023-03-25T09:44:35.850Z,96784.34
2023-03-25T09:47:03.779Z,96771.88
2023-03-25T09:49:40.778Z,96774.13
2023-03-25T09:52:18.488Z,96775.00
2023-03-25T09:54:51.996Z,96769.03
2023-03-25T09:57:23.083Z,96757.19
2023-03-25T09:59:51.513Z,96762.47
2023-03-25T10:02:26.905Z,96752.03
2023-03-25T10:04:54.616Z,96759.03
2023-03-25T10:07:26.050Z,96742.06
2023-03-25T10:10:23.080Z,96740.72
2023-03-25T10:12:59.404Z,96724.97
2023-03-25T10:15:39.334Z,96733.88
2023-03-25T10:18:34.035Z,96732.09
2023-03-25T10:21:13.292Z,96736.81
2023-03-25T10:23:59.767Z,96725.16
2023-03-25T10:26:59.695Z,96727.28
2023-03-25T10:29:44.180Z,96717.44
2023-03-25T10:32:24.132Z,96710.09
2023-03-25T10:34:52.910Z,96710.28
2023-03-25T10:37:28.762Z,96712.47
2023-03-25T10:40:15.383Z,96704.09
2023-03-25T10:43:34.770Z,96695.56
2023-03-25T10:46:27.518Z,96692.91
2023-03-25T10:48:55.669Z,96694.28
2023-03-25T10:51:30.779Z,96684.09
2023-03-25T10:53:58.588Z,96675.78
2023-03-25T10:56:31.345Z,96677.94
2023-03-25T10:58:59.742Z,96665.75
2023-03-25T11:01:42.798Z,96664.19
2023-03-25T11:04:13.511Z,96669.81
2023-03-25T11:06:42.234Z,96661.75
2023-03-25T11:09:18.555Z,96664.97
2023-03-25T11:11:46.476Z,96665.56
2023-03-25T11:14:14.249Z,96659.38
2023-03-25T11:16:41.964Z,96656.72
2023-03-25T11:19:22.750Z,96661.09
2023-03-25T11:21:54.048Z,96646.13
2023-03-25T11:24:21.848Z,96651.75
2023-03-25T11:26:49.667Z,96648.44
2023-03-25T11:29:19.785Z,96637.78
2023-03-25T11:32:04.280Z,96631.50
2023-03-25T11:34:32.185Z,96626.59
2023-03-25T11:37:20.754Z,96625.94
2023-03-25T11:39:51.592Z,96625.56
2023-03-25T11:42:28.926Z,96617.63
2023-03-25T11:44:59.371Z,96613.47
2023-03-25T11:47:31.571Z,96620.97
2023-03-25T11:49:59.614Z,96618.97
2023-03-25T11:52:35.705Z,96621.53
2023-03-25T11:55:03.837Z,96611.38
2023-03-25T11:57:37.042Z,96599.88
2023-03-25T12:00:12.221Z,96603.59
2023-03-25T12:02:40.496Z,96598.47
2023-03-25T12:05:08.174Z,96599.88
2023-03-25T12:07:47.404Z,96601.81
2023-03-25T12:10:43.107Z,96602.66
2023-03-25T12:13:52.169Z,96607.00
2023-03-25T12:16:44.405Z,96591.94
2023-03-25T12:19:33.069Z,96599.63
2023-03-25T12:22:27.454Z,96603.50
2023-03-25T12:25:33.802Z,96592.63
2023-03-25T12:28:13.286Z,96599.44
2023-03-25T12:31:01.496Z,96592.66
2023-03-25T12:33:44.608Z,96602.72
2023-03-25T12:36:34.263Z,96593.63
2023-03-25T12:39:09.598Z,96591.91
2023-03-25T12:41:49.729Z,96591.47
2023-03-25T12:44:49.004Z,96595.63
2023-03-25T12:47:17.025Z,96602.66
2023-03-25T12:50:35.903Z,96593.69
2023-03-25T12:53:15.723Z,96595.88
2023-03-25T12:55:57.892Z,96595.38
2023-03-25T12:58:48.988Z,96608.59
2023-03-25T13:01:34.000Z,96604.06
2023-03-25T13:04:26.607Z,96604.44
2023-03-25T13:07:02.909Z,96609.16
2023-03-25T13:09:34.317Z,96608.69
2023-03-25T13:12:19.373Z,96611.63
2023-03-25T13:15:07.807Z,96599.13
2023-03-25T13:17:51.820Z,96588.47
2023-03-25T13:20:19.763Z,96588.84
2023-03-25T13:22:49.863Z,96600.13
2023-03-25T13:25:20.707Z,96604.66
2023-03-25T13:27:48.550Z,96619.09
2023-03-25T13:30:31.041Z,96630.09
2023-03-25T13:33:15.719Z,96635.78
2023-03-25T13:35:57.570Z,96626.63
2023-03-25T13:38:33.563Z,96600.00
2023-03-25T13:41:26.479Z,96587.06
2023-03-25T13:43:54.151Z,96579.31
2023-03-25T13:46:24.962Z,96563.06
2023-03-25T13:49:20.105Z,96567.81
2023-03-25T13:51:48.134Z,96563.72
2023-03-25T13:54:38.097Z,96558.88
2023-03-25T13:57:25.992Z,96560.03
2023-03-25T14:00:08.537Z,96559.63
2023-03-25T14:03:17.787Z,96567.78
2023-03-25T14:05:51.653Z,96571.16
2023-03-25T14:08:25.172Z,96584.72
2023-03-25T14:11:20.669Z,96590.03
2023-03-25T14:14:01.882Z,96592.13
2023-03-25T14:16:33.247Z,96589.94
2023-03-25T14:19:07.272Z,96608.78
2023-03-25T14:21:47.597Z,96601.84
2023-03-25T14:24:29.375Z,96605.53
2023-03-25T14:27:35.537Z,96608.19
2023-03-25T14:30:05.922Z,96617.00
2023-03-25T14:32:38.276Z,96603.63
2023-03-25T14:35:34.334Z,96615.66
2023-03-25T14:38:08.765Z,96606.41
2023-03-25T14:40:47.906Z,96608.81
2023-03-25T14:43:46.603Z,96615.44
2023-03-25T14:46:18.618Z,96609.72
2023-03-25T14:49:09.100Z,96617.78
2023-03-25T14:51:41.151Z,96617.78
2023-03-25T14:54:31.028Z,96618.53
2023-03-25T14:57:16.016Z,96629.19
2023-03-25T14:59:45.815Z,96617.66
2023-03-25T15:02:21.050Z,96631.31
2023-03-25T15:05:02.318Z,96631.16
2023-03-25T15:07:51.642Z,96636.06
2023-03-25T15:10:25.471Z,96635.22
2023-03-25T15:12:56.573Z,96624.94
2023-03-25T15:15:33.105Z,96622.25
2023-03-25T15:18:01.110Z,96625.44
2023-03-25T15:20:29.540Z,96621.34
2023-03-25T15:23:19.210Z,96604.19
2023-03-25T15:25:46.984Z,96593.38
2023-03-25T15:28:32.863Z,96575.53
2023-03-25T15:31:08.270Z,96557.22
2023-03-25T15:33:58.665Z,96548.81
2023-03-25T15:36:35.425Z,96534.88
2023-03-25T15:39:24.978Z,96545.88
2023-03-25T15:42:17.057Z,96557.66
2023-03-25T15:45:10.866Z,96566.31
2023-03-25T15:47:49.891Z,96561.97
2023-03-25T15:50:17.596Z,96554.03
2023-03-25T15:52:45.159Z,96552.59
2023-03-25T15:55:21.515Z,96556.56
2023-03-25T15:57:49.653Z,96554.03
2023-03-25T16:00:22.763Z,96550.75
2023-03-25T16:03:06.788Z,96547.28
2023-03-25T16:05:36.577Z,96555.13
2023-03-25T16:08:11.586Z,96562.75
2023-03-25T16:10:41.472Z,96558.13
2023-03-25T16:13:16.604Z,96547.75
2023-03-25T16:15:44.368Z,96542.91
2023-03-25T16:18:14.209Z,96551.16
2023-03-25T16:20:41.953Z,96555.81
2023-03-25T16:23:17.307Z,96553.97
2023-03-25T16:25:45.656Z,96560.03
2023-03-25T16:28:15.664Z,96560.81
2023-03-25T16:30:44.155Z,96554.22
2023-03-25T16:33:14.064Z,96553.31
2023-03-25T16:35:46.100Z,96548.47
2023-03-25T16:38:15.519Z,96547.69
2023-03-25T16:40:47.026Z,96544.50
2023-03-25T16:43:19.456Z,96543.09
2023-03-25T16:45:47.323Z,96530.16
2023-03-25T16:48:37.416Z,96527.75
2023-03-25T16:51:13.757Z,96531.69
2023-03-25T16:53:41.933Z,96527.78
2023-03-25T16:56:09.767Z,96525.13
2023-03-25T16:58:37.897Z,96532.19
2023-03-25T17:01:15.644Z,96532.19
2023-03-25T17:03:46.769Z,96534.50
2023-03-25T17:06:20.446Z,96532.38
2023-03-25T17:08:52.567Z,96528.34
2023-03-25T17:11:20.541Z,96526.19
2023-03-25T17:13:51.780Z,96526.59
2023-03-25T17:16:19.596Z,96521.28
2023-03-25T17:18:51.544Z,96529.38
2023-03-25T17:21:28.072Z,96527.81
2023-03-25T17:23:56.852Z,96528.38
2023-03-25T17:26:25.507Z,96528.81
2023-03-25T17:28:53.241Z,96530.28
2023-03-25T17:31:24.841Z,96530.91
2023-03-25T17:33:54.210Z,96529.72
2023-03-25T17:36:21.963Z,96526.97
2023-03-25T17:38:52.193Z,96533.94
2023-03-25T17:41:20.086Z,96528.97
2023-03-25T17:43:52.995Z,96530.81
2023-03-25T17:46:22.483Z,96524.75
2023-03-25T17:48:53.229Z,96530.41
2023-03-25T17:51:21.256Z,96527.63
2023-03-25T17:53:49.302Z,96528.75
2023-03-25T17:56:22.184Z,96546.25
2023-03-25T17:58:56.782Z,96545.16
2023-03-25T18:01:25.847Z,96549.47
2023-03-25T18:03:54.611Z,96551.91
2023-03-25T18:06:22.602Z,96549.94
2023-03-25T18:08:50.773Z,96555.66
2023-03-25T18:11:19.021Z,96557.19
2023-03-25T18:13:48.158Z,96550.81
2023-03-25T18:16:16.962Z,96561.69
2023-03-25T18:18:44.803Z,96551.50
2023-03-25T18:21:13.438Z,96555.69
2023-03-25T18:23:41.489Z,96562.97
2023-03-25T18:26:12.664Z,96552.66
2023-03-25T18:28:43.762Z,96547.75
2023-03-25T18:31:15.952Z,96559.69
2023-03-25T18:33:48.317Z,96557.13
2023-03-25T18:36:16.209Z,96549.00
2023-03-25T18:38:43.911Z,96560.09
2023-03-25T18:41:13.891Z,96558.84
2023-03-25T18:43:42.199Z,96558.94
2023-03-25T18:46:14.157Z,96556.13
2023-03-25T18:48:42.173Z,96546.06
2023-03-25T18:51:10.686Z,96555.25
2023-03-25T18:53:38.541Z,96552.56
2023-03-25T18:56:07.258Z,96560.44
2023-03-25T18:58:35.891Z,96560.34
2023-03-25T19:01:04.385Z,96561.13
2023-03-25T19:03:38.477Z,96558.81
2023-03-25T19:06:11.582Z,96562.66
2023-03-25T19:08:40.705Z,96563.47
2023-03-25T19:11:20.175Z,96563.75
2023-03-25T19:13:50.773Z,96569.44
2023-03-25T19:16:19.096Z,96574.41
2023-03-25T19:18:47.641Z,96584.31
2023-03-25T19:21:19.224Z,96574.47
2023-03-25T19:23:47.324Z,96571.63
2023-03-25T19:26:15.148Z,96566.16
2023-03-25T19:28:42.907Z,96569.22
2023-03-25T19:31:12.541Z,96574.03
2023-03-25T19:33:40.311Z,96573.69
2023-03-25T19:36:08.282Z,96570.81
2023-03-25T19:38:36.088Z,96557.56
2023-03-25T19:41:08.465Z,96562.97
2023-03-25T19:43:36.475Z,96559.34
2023-03-25T19:46:05.472Z,96554.44
2023-03-25T19:48:33.610Z,96549.00
2023-03-25T19:51:01.369Z,96549.81
2023-03-25T19:53:29.452Z,96550.09
2023-03-25T19:56:01.644Z,96550.34
2023-03-25T19:58:29.358Z,96554.00
2023-03-25T20:00:57.165Z,96553.00
2023-03-25T20:03:25.036Z,96561.78
2023-03-25T20:05:57.020Z,96569.63
2023-03-25T20:08:25.793Z,96579.25
2023-03-25T20:10:53.877Z,96583.94
2023-03-25T20:13:22.133Z,96583.00
2023-03-25T20:15:50.583Z,96588.53
2023-03-25T20:18:18.746Z,96594.69
2023-03-25T20:20:46.502Z,96610.97
2023-03-25T20:23:14.289Z,96603.28
2023-03-25T20:25:42.157Z,96610.69
2023-03-25T20:28:09.957Z,96619.13
2023-03-25T20:30:37.649Z,96617.88
2023-03-25T20:33:05.643Z,96629.22
2023-03-25T20:35:33.985Z,96653.84
2023-03-25T20:38:01.846Z,96655.19
2023-03-25T20:40:41.579Z,96668.53
2023-03-25T20:43:14.107Z,96673.81
2023-03-25T20:45:43.127Z,96683.06
2023-03-25T20:48:11.143Z,96693.94
2023-03-25T20:50:39.030Z,96700.06
2023-03-25T20:53:06.852Z,96699.59
2023-03-25T20:55:34.591Z,96722.34
2023-03-25T20:58:02.356Z,96738.63
2023-03-25T21:00:30.189Z,96736.97
2023-03-25T21:02:58.528Z,96735.09
2023-03-25T21:05:28.036Z,96732.91
2023-03-25T21:07:55.751Z,96741.09
2023-03-25T21:10:23.548Z,96753.19
2023-03-25T21:12:51.340Z,96752.25
2023-03-25T21:15:19.097Z,96773.53
2023-03-25T21:17:47.106Z,96789.16
2023-03-25T21:20:14.918Z,96779.09
2023-03-25T21:22:43.467Z,96778.44
2023-03-25T21:25:13.137Z,96788.22
2023-03-25T21:27:42.323Z,96779.78
2023-03-25T21:30:10.818Z,96766.41
2023-03-25T21:32:38.945Z,96774.91
2023-03-25T21:35:07.893Z,96785.63
2023-03-25T21:37:38.484Z,96786.97
2023-03-25T21:40:08.273Z,96788.66
2023-03-25T21:42:38.483Z,96780.63
2023-03-25T21:45:07.886Z,96769.72
2023-03-25T21:47:36.360Z,96769.25
2023-03-25T21:50:09.806Z,96773.22
2023-03-25T21:52:38.924Z,96770.97
2023-03-25T21:55:07.363Z,96752.09
2023-03-25T21:57:38.448Z,96745.25
2023-03-25T22:00:07.990Z,96751.06
2023-03-25T22:02:39.580Z,96749.16
2023-03-25T22:05:07.747Z,96737.34
2023-03-25T22:07:35.655Z,96755.09
2023-03-25T22:10:04.674Z,96740.81
2023-03-25T22:12:32.442Z,96745.88
2023-03-25T22:15:00.361Z,96732.84
2023-03-25T22:17:28.055Z,96723.47
2023-03-25T22:19:55.805Z,96736.47
2023-03-25T22:22:24.119Z,96740.91
2023-03-25T22:24:52.049Z,96749.59
2023-03-25T22:27:19.715Z,96723.72
2023-03-25T22:29:47.476Z,96722.50
2023-03-25T22:32:15.164Z,96729.81
2023-03-25T22:34:43.009Z,96723.28
2023-03-25T22:37:10.757Z,96721.06
2023-03-25T22:39:39.122Z,96719.09
2023-03-25T22:42:06.991Z,96718.63
2023-03-25T22:44:34.797Z,96719.78
2023-03-25T22:47:03.292Z,96708.78
2023-03-25T22:49:31.590Z,96706.47
2023-03-25T22:51:59.338Z,96704.25
2023-03-25T22:54:27.169Z,96700.25
2023-03-25T22:56:54.993Z,96700.34
2023-03-25T22:59:22.735Z,96710.44
2023-03-25T23:01:50.499Z,96700.50
2023-03-25T23:04:18.288Z,96704.84
2023-03-25T23:06:53.924Z,96725.84
2023-03-25T23:09:43.746Z,96727.06
2023-03-25T23:12:12.826Z,96726.53
2023-03-25T23:14:48.236Z,96722.28
2023-03-25T23:17:16.263Z,96708.78
2023-03-25T23:19:44.160Z,96711.72
2023-03-25T23:22:11.872Z,96721.16
2023-03-25T23:24:39.659Z,96737.84
2023-03-25T23:27:08.348Z,96739.75
2023-03-25T23:29:36.345Z,96753.72
2023-03-25T23:32:04.942Z,96746.19
2023-03-25T23:34:33.987Z,96752.06
2023-03-25T23:37:02.600Z,96759.78
2023-03-25T23:39:30.479Z,96778.22
2023-03-25T23:41:58.151Z,96800.25
2023-03-25T23:44:26.080Z,96809.16
2023-03-25T23:46:53.850Z,96817.81
2023-03-25T23:49:21.660Z,96810.00
2023-03-25T23:51:51.022Z,96802.34
2023-03-25T23:54:18.883Z,96805.16
2023-03-25T23:56:46.668Z,96821.81
2023-03-25T23:59:14.403Z,96823.41
